Time;durP1;ratioP1;P1;durP2;ratioP2;P2;SDS_P1;SDS_P2;PMS_P1;PMS_P2;Temp;Humidity;BMP_temperature;BMP_pressure;BME280_temperature;BME280_humidity;BME280_pressure;Samples;Min_cycle;Max_cycle;Signal;HPM_P1;HPM_P2
2022/09/14 00:00:51;;;;;;;2.80;2.20;;;;;;;-143.84;63.79;45077.63;5108789;28;20565;-71
2022/09/14 00:03:19;;;;;;;2.10;1.90;;;;;;;-143.84;63.59;45083.34;5109081;28;20438;-71
2022/09/14 00:05:48;;;;;;;2.20;2.00;;;;;;;-143.84;63.61;45071.91;5108941;28;20439;-71
2022/09/14 00:08:15;;;;;;;4.17;2.10;;;;;;;-143.84;63.37;45081.44;5109470;28;20834;-71
2022/09/14 00:10:43;;;;;;;3.00;2.17;;;;;;;-143.84;63.04;45077.63;5109223;28;20438;-71
2022/09/14 00:13:12;;;;;;;2.50;1.90;;;;;;;-143.84;63.37;45117.63;5109248;28;20516;-71
2022/09/14 00:15:42;;;;;;;4.27;2.43;;;;;;;-143.84;63.34;45077.63;5109275;28;21129;-71
2022/09/14 00:18:11;;;;;;;3.80;2.30;;;;;;;-143.84;63.49;45075.72;5109192;28;20435;-72
2022/09/14 00:20:39;;;;;;;6.27;2.50;;;;;;;-143.84;63.17;45083.34;5109227;28;20935;-72
2022/09/14 00:23:07;;;;;;;5.67;2.13;;;;;;;-143.84;62.53;45081.44;5109396;28;20434;-71
2022/09/14 00:25:34;;;;;;;2.73;2.10;;;;;;;-143.84;62.29;45081.44;5109034;28;20442;-72
2022/09/14 00:28:02;;;;;;;5.80;3.10;;;;;;;-143.84;60.96;45090.97;5110028;28;20923;-72
2022/09/14 00:30:29;;;;;;;13.13;2.60;;;;;;;-143.84;60.31;45094.78;5113074;28;21104;-72
2022/09/14 00:32:56;;;;;;;2.60;2.40;;;;;;;-143.84;59.02;45085.25;5113231;28;20443;-69
2022/09/14 00:35:24;;;;;;;3.40;2.47;;;;;;;-143.84;58.05;45092.88;5113772;28;20431;-69
2022/09/14 00:37:51;;;;;;;2.93;2.10;;;;;;;-143.84;55.97;45068.13;5113843;28;20789;-69
2022/09/14 00:40:20;;;;;;;2.47;2.27;;;;;;;-143.84;54.52;45083.34;5113359;28;20474;-69
2022/09/14 00:42:47;;;;;;;4.50;2.30;;;;;;;-143.84;53.16;45089.06;5113510;28;20884;-69
2022/09/14 00:45:17;;;;;;;3.43;2.33;;;;;;;-143.84;52.66;45089.06;5113530;28;20480;-69
2022/09/14 00:47:45;;;;;;;3.00;2.40;;;;;;;-143.84;51.79;45083.34;5113341;28;20434;-69
2022/09/14 00:50:12;;;;;;;2.90;2.13;;;;;;;-143.84;51.43;45079.53;5113338;28;21039;-69
2022/09/14 00:52:45;;;;;;;3.70;2.10;;;;;;;-143.84;51.49;45077.63;5113359;28;20465;-69
2022/09/14 00:55:15;;;;;;;4.30;2.00;;;;;;;-143.84;51.35;45089.06;5113301;28;20427;-69
2022/09/14 00:57:48;;;;;;;3.40;2.27;;;;;;;-143.84;50.48;45087.16;5113006;28;20993;-71
2022/09/14 01:00:18;;;;;;;2.50;2.27;;;;;;;-143.84;50.79;45073.81;5112144;28;20449;-72
2022/09/14 01:02:45;;;;;;;2.47;2.37;;;;;;;-143.84;50.94;45066.22;5111758;28;20480;-72
2022/09/14 01:05:13;;;;;;;2.33;2.13;;;;;;;-143.84;51.39;45062.41;5112200;28;20569;-71
2022/09/14 01:07:50;;;;;;;2.70;2.43;;;;;;;-143.84;52.69;45075.72;5112158;28;20457;-71
2022/09/14 01:10:28;;;;;;;6.00;4.10;;;;;;;-143.84;56.18;45077.63;5112560;28;20426;-71
2022/09/14 01:13:08;;;;;;;6.87;5.77;;;;;;;-143.84;59.38;45068.13;5112485;28;20437;-71
2022/09/14 01:15:47;;;;;;;13.53;8.77;;;;;;;-143.84;61.23;45079.53;5112427;28;20454;-71
2022/09/14 01:18:21;;;;;;;14.27;11.10;;;;;;;-143.84;62.76;45066.22;5112599;28;20483;-71
2022/09/14 01:20:56;;;;;;;22.67;13.50;;;;;;;-143.84;63.89;45064.31;5112064;28;20499;-71
2022/09/14 01:23:31;;;;;;;12.60;10.27;;;;;;;-143.84;63.54;45081.44;5111982;28;20438;-71
2022/09/14 01:26:31;;;;;;;9.07;8.10;;;;;;;-143.84;62.42;45081.44;5112136;28;21054;-71
2022/09/14 01:29:02;;;;;;;23.30;6.20;;;;;;;-143.84;60.81;45073.81;5112188;28;21011;-71
2022/09/14 01:31:35;;;;;;;7.70;4.43;;;;;;;-143.84;59.18;45087.16;5112141;28;20985;-71
2022/09/14 01:34:09;;;;;;;4.10;3.80;;;;;;;-143.84;56.88;45056.69;5111670;28;20498;-71
2022/09/14 01:36:39;;;;;;;7.80;3.47;;;;;;;-143.84;55.34;45094.78;5110902;28;20476;-71
2022/09/14 01:39:08;;;;;;;8.20;2.80;;;;;;;-143.84;55.06;45075.72;5110709;28;20485;-71
2022/09/14 01:41:36;;;;;;;2.80;2.60;;;;;;;-143.84;55.11;45056.69;5111379;28;20476;-71
2022/09/14 01:44:10;;;;;;;9.00;2.77;;;;;;;-143.84;54.76;45077.63;5111172;28;20437;-71
2022/09/14 01:46:40;;;;;;;2.80;2.53;;;;;;;-143.84;54.82;45075.72;5111214;28;20445;-71
2022/09/14 01:49:14;;;;;;;2.40;2.30;;;;;;;-143.84;54.46;45090.97;5111633;28;20449;-71
2022/09/14 01:51:46;;;;;;;2.80;2.37;;;;;;;-143.84;54.29;45070.00;5111337;28;20452;-71
2022/09/14 01:54:18;;;;;;;3.60;2.50;;;;;;;-143.84;54.11;45060.50;5111323;28;20442;-71
2022/09/14 01:56:51;;;;;;;5.13;3.43;;;;;;;-143.84;54.55;45089.06;5111493;28;20438;-71
2022/09/14 01:59:24;;;;;;;4.17;3.20;;;;;;;-143.84;54.72;45066.22;5111660;28;20431;-71
2022/09/14 02:01:57;;;;;;;3.47;3.17;;;;;;;-143.84;54.58;45092.88;5111625;28;20486;-72
2022/09/14 02:04:31;;;;;;;3.33;3.13;;;;;;;-143.84;54.20;45089.06;5112436;28;20496;-72
2022/09/14 02:06:58;;;;;;;2.77;2.57;;;;;;;-143.84;53.33;45079.53;5112217;28;20438;-73
2022/09/14 02:09:26;;;;;;;8.77;2.20;;;;;;;-143.84;52.89;45071.91;5112156;28;20432;-73
2022/09/14 02:11:59;;;;;;;3.10;2.67;;;;;;;-143.84;52.38;45073.81;5111999;28;21053;-73
2022/09/14 02:14:28;;;;;;;4.20;2.47;;;;;;;-143.84;52.13;45064.31;5111509;28;20439;-73
2022/09/14 02:16:55;;;;;;;5.77;2.63;;;;;;;-143.84;51.72;45073.81;5110500;28;20438;-73
2022/09/14 02:19:24;;;;;;;2.80;2.60;;;;;;;-143.84;51.37;45058.59;5110973;28;20478;-73
2022/09/14 02:21:51;;;;;;;3.37;2.80;;;;;;;-143.84;50.89;45066.22;5111256;28;20500;-73
2022/09/14 02:24:19;;;;;;;2.40;2.30;;;;;;;-143.84;50.45;45056.69;5110757;28;20441;-73
2022/09/14 02:26:48;;;;;;;4.80;2.57;;;;;;;-143.84;51.04;45090.97;5110627;28;20490;-73
2022/09/14 02:29:16;;;;;;;2.40;2.30;;;;;;;-143.84;50.76;45115.72;5111450;28;20520;-73
2022/09/14 02:31:59;;;;;;;2.10;1.90;;;;;;;-143.84;50.51;45079.53;5111274;28;20820;-73
2022/09/14 02:34:35;;;;;;;2.60;2.13;;;;;;;-143.84;50.39;45085.25;5111142;28;20445;-73
2022/09/14 02:37:10;;;;;;;2.20;2.10;;;;;;;-143.84;50.01;45079.53;5111156;28;20491;-73
2022/09/14 02:39:46;;;;;;;3.87;2.37;;;;;;;-143.84;49.57;45085.25;5111289;28;20485;-73
2022/09/14 02:42:23;;;;;;;2.47;2.37;;;;;;;-143.84;49.71;45077.63;5111211;28;20481;-73
2022/09/14 02:45:02;;;;;;;2.53;2.33;;;;;;;-143.84;49.20;45075.72;5110757;28;20441;-73
2022/09/14 02:47:36;;;;;;;8.13;2.67;;;;;;;-143.84;49.57;45079.53;5110215;28;20987;-73
2022/09/14 02:50:14;;;;;;;5.00;2.53;;;;;;;-143.84;49.50;45090.97;5110462;28;20450;-73
2022/09/14 02:52:49;;;;;;;11.40;3.00;;;;;;;-143.84;49.40;45056.69;5110495;28;20430;-73
2022/09/14 02:55:19;;;;;;;4.40;2.43;;;;;;;-143.84;49.00;45079.53;5111050;28;20439;-73
2022/09/14 02:58:04;;;;;;;5.00;2.40;;;;;;;-143.84;49.13;45073.81;5110880;28;20467;-73
2022/09/14 03:00:34;;;;;;;7.20;2.93;;;;;;;-143.84;48.83;45068.13;5110968;28;20453;-73
2022/09/14 03:03:04;;;;;;;2.60;2.40;;;;;;;-143.84;48.68;45047.16;5110804;28;20519;-73
2022/09/14 03:05:31;;;;;;;6.00;3.67;;;;;;;-143.84;49.14;45066.22;5110728;28;20940;-73
2022/09/14 03:07:58;;;;;;;3.50;2.23;;;;;;;-143.84;49.17;45090.97;5110790;28;20464;-73
2022/09/14 03:10:26;;;;;;;7.33;2.40;;;;;;;-143.84;49.34;45081.44;5110455;28;20437;-72
2022/09/14 03:12:53;;;;;;;3.63;2.33;;;;;;;-143.84;49.20;45094.78;5110324;28;20444;-72
2022/09/14 03:15:20;;;;;;;3.43;2.97;;;;;;;-143.84;49.48;45090.97;5110708;28;20449;-73
2022/09/14 03:17:48;;;;;;;4.70;2.40;;;;;;;-143.84;49.58;45075.72;5110319;28;20494;-73
2022/09/14 03:20:19;;;;;;;5.67;3.37;;;;;;;-143.84;49.38;45081.44;5110040;28;20845;-73
2022/09/14 03:22:47;;;;;;;4.17;2.70;;;;;;;-143.84;49.53;45083.34;5110178;28;20488;-73
2022/09/14 03:25:14;;;;;;;3.07;2.30;;;;;;;-143.84;49.23;45098.56;5110386;28;20860;-73
2022/09/14 03:27:42;;;;;;;2.40;2.20;;;;;;;-143.84;49.24;45098.56;5110359;28;20441;-73
2022/09/14 03:30:10;;;;;;;2.37;2.20;;;;;;;-143.84;49.31;45049.06;5109957;28;20445;-73
2022/09/14 03:32:37;;;;;;;2.60;2.40;;;;;;;-143.84;49.25;45075.72;5109653;28;20501;-73
2022/09/14 03:35:05;;;;;;;2.70;2.60;;;;;;;-143.84;49.27;45075.72;5109835;28;20997;-73
2022/09/14 03:37:37;;;;;;;6.50;2.90;;;;;;;-143.84;49.25;45079.53;5109586;28;20486;-73
2022/09/14 03:40:06;;;;;;;10.30;3.13;;;;;;;-143.84;49.10;45071.91;5109768;28;20494;-73
2022/09/14 03:42:33;;;;;;;5.73;3.43;;;;;;;-143.84;49.25;45089.06;5109663;28;20478;-73
2022/09/14 03:45:00;;;;;;;9.20;3.07;;;;;;;-143.84;49.59;45090.97;5109699;28;20988;-73
2022/09/14 03:47:28;;;;;;;15.63;3.93;;;;;;;-143.84;49.51;45096.66;5109211;28;20436;-73
2022/09/14 03:49:55;;;;;;;6.70;3.90;;;;;;;-143.84;49.76;45081.44;5109250;28;20496;-73
2022/09/14 03:52:22;;;;;;;3.40;3.20;;;;;;;-143.84;49.84;45083.34;5109500;28;20853;-73
2022/09/14 03:54:50;;;;;;;4.30;3.30;;;;;;;-143.84;50.06;45083.34;5109581;28;20434;-73
2022/09/14 03:57:18;;;;;;;11.50;3.23;;;;;;;-143.84;50.53;45092.88;5109470;28;20445;-73
2022/09/14 03:59:45;;;;;;;10.63;2.33;;;;;;;-143.84;50.55;45085.25;5109593;28;20470;-73
2022/09/14 04:02:12;;;;;;;7.10;2.60;;;;;;;-143.84;50.82;45090.97;5108618;28;20501;-73
2022/09/14 04:04:39;;;;;;;2.70;2.50;;;;;;;-143.84;50.94;45092.88;5109258;28;21023;-73
2022/09/14 04:07:06;;;;;;;6.33;2.87;;;;;;;-143.84;51.21;45085.25;5109306;28;20439;-73
2022/09/14 04:09:34;;;;;;;2.60;2.40;;;;;;;-143.84;51.27;45070.00;5109627;28;20428;-73
2022/09/14 04:12:02;;;;;;;2.83;2.60;;;;;;;-143.84;51.04;45062.41;5109173;28;20439;-73
2022/09/14 04:14:30;;;;;;;7.53;2.40;;;;;;;-143.84;51.38;45054.78;5109378;28;20439;-73
2022/09/14 04:16:57;;;;;;;7.60;2.70;;;;;;;-143.84;51.27;45089.06;5109478;28;20931;-73
2022/09/14 04:19:24;;;;;;;3.10;2.80;;;;;;;-143.84;51.53;45090.97;5109777;28;20561;-73
2022/09/14 04:21:51;;;;;;;8.70;2.93;;;;;;;-143.84;51.58;45073.81;5109698;28;21115;-72
2022/09/14 04:24:18;;;;;;;5.10;2.90;;;;;;;-143.84;51.57;45106.19;5109519;28;20437;-73
2022/09/14 04:26:46;;;;;;;8.27;3.03;;;;;;;-143.84;51.67;45079.53;5109297;28;20443;-71
2022/09/14 04:29:15;;;;;;;4.03;3.43;;;;;;;-143.84;51.57;45066.22;5108982;28;20433;-71
2022/09/14 04:31:42;;;;;;;6.10;2.50;;;;;;;-143.84;51.43;45083.34;5107998;28;20925;-71
2022/09/14 04:34:11;;;;;;;7.53;2.90;;;;;;;-143.84;51.19;45104.28;5108681;28;20444;-71
2022/09/14 04:36:38;;;;;;;8.80;2.40;;;;;;;-143.84;51.42;45092.88;5108518;28;20445;-71
2022/09/14 04:39:05;;;;;;;2.97;2.73;;;;;;;-143.84;50.46;45066.22;5108473;28;21021;-71
2022/09/14 04:41:33;;;;;;;5.33;2.70;;;;;;;-143.84;50.49;45073.81;5108767;28;20445;-71
2022/09/14 04:44:01;;;;;;;4.60;2.40;;;;;;;-143.84;50.13;45079.53;5108917;28;20481;-71
2022/09/14 04:46:33;;;;;;;5.60;3.03;;;;;;;-143.84;49.27;45077.63;5108725;28;21164;-71
2022/09/14 04:49:00;;;;;;;8.03;2.60;;;;;;;-143.84;48.80;45079.53;5109114;28;20446;-72
2022/09/14 04:51:30;;;;;;;4.03;2.33;;;;;;;-143.84;47.85;45087.16;5109243;28;20515;-71
2022/09/14 04:53:59;;;;;;;2.80;2.63;;;;;;;-143.84;47.58;45056.69;5109067;28;20438;-71
2022/09/14 04:56:27;;;;;;;2.60;2.40;;;;;;;-143.84;46.28;45073.81;5108604;28;20441;-71
2022/09/14 04:58:57;;;;;;;6.33;2.63;;;;;;;-143.84;44.98;45085.25;5109132;28;20488;-73
2022/09/14 05:01:27;;;;;;;5.63;2.37;;;;;;;-143.84;44.55;45041.44;5108712;28;20466;-72
2022/09/14 05:03:55;;;;;;;4.40;2.53;;;;;;;-143.84;43.34;45033.84;5109211;28;20960;-72
2022/09/14 05:06:24;;;;;;;2.60;2.30;;;;;;;-143.84;42.82;45060.50;5108727;28;20447;-72
2022/09/14 05:08:53;;;;;;;3.87;2.40;;;;;;;-143.84;42.26;45054.78;5108759;28;20439;-72
2022/09/14 05:11:22;;;;;;;2.13;1.80;;;;;;;-143.84;41.85;45064.31;5108020;28;21005;-73
2022/09/14 05:13:49;;;;;;;2.70;2.10;;;;;;;-143.84;41.45;45052.88;5109012;28;20837;-72
2022/09/14 05:16:19;;;;;;;4.30;2.60;;;;;;;-143.84;40.77;45030.03;5112627;28;20435;-72
2022/09/14 05:18:46;;;;;;;2.50;2.30;;;;;;;-143.84;40.26;45035.75;5113044;28;21559;-73
2022/09/14 05:21:20;;;;;;;4.53;2.87;;;;;;;-143.84;40.34;45030.03;5112762;28;20904;-73
2022/09/14 05:23:47;;;;;;;3.80;2.50;;;;;;;-143.84;39.74;45039.53;5113058;28;20942;-72
2022/09/14 05:26:15;;;;;;;4.10;2.27;;;;;;;-143.84;39.28;45018.59;5112815;28;20468;-72
2022/09/14 05:28:42;;;;;;;3.03;2.00;;;;;;;-143.84;39.60;45052.88;5112676;28;20439;-72
2022/09/14 05:31:11;;;;;;;1.90;1.60;;;;;;;-143.84;39.21;45030.03;5112220;28;20439;-73
2022/09/14 05:33:39;;;;;;;6.93;2.00;;;;;;;-143.84;38.84;45033.84;5112525;28;20526;-73
2022/09/14 05:36:08;;;;;;;3.10;2.27;;;;;;;-143.84;38.90;45024.31;5112443;28;20439;-72
2022/09/14 05:38:39;;;;;;;7.33;2.40;;;;;;;-143.84;38.58;45014.78;5112639;28;20846;-72
2022/09/14 05:41:08;;;;;;;2.20;2.00;;;;;;;-143.84;37.74;45003.38;5112582;28;20447;-72
2022/09/14 05:43:35;;;;;;;5.23;2.10;;;;;;;-143.84;37.62;45007.19;5112381;28;20478;-72
2022/09/14 05:46:03;;;;;;;4.93;2.37;;;;;;;-143.84;37.67;45012.88;5112707;28;20484;-72
2022/09/14 05:48:31;;;;;;;3.77;2.93;;;;;;;-143.84;37.24;45016.69;5113002;28;20965;-72
2022/09/14 05:50:59;;;;;;;3.90;3.50;;;;;;;-143.84;36.67;45024.31;5112283;28;20461;-72
2022/09/14 05:53:26;;;;;;;8.03;3.93;;;;;;;-143.84;36.90;45007.19;5112690;28;20950;-72
2022/09/14 05:56:02;;;;;;;5.47;2.63;;;;;;;-143.84;36.42;44995.75;5111900;28;20940;-72
2022/09/14 05:58:29;;;;;;;10.53;2.63;;;;;;;-143.84;35.79;44997.66;5111178;28;20527;-72
2022/09/14 06:00:56;;;;;;;4.07;2.70;;;;;;;-143.84;35.86;44991.94;5111263;28;20423;-75
2022/09/14 06:03:24;;;;;;;10.10;1.97;;;;;;;-143.84;35.16;44995.75;5094046;28;20491;-72
2022/09/14 06:05:53;;;;;;;2.13;1.93;;;;;;;-143.84;35.16;44988.13;5091632;28;20440;-72
2022/09/14 06:08:22;;;;;;;3.97;2.10;;;;;;;-143.84;34.85;44982.41;5090326;28;20481;-72
2022/09/14 06:10:49;;;;;;;7.13;2.50;;;;;;;-143.84;35.05;44999.56;5090692;28;20848;-72
2022/09/14 06:13:17;;;;;;;3.83;2.63;;;;;;;-143.84;34.54;44980.53;5090667;28;20489;-72
2022/09/14 06:15:45;;;;;;;3.90;2.27;;;;;;;-143.84;34.62;44991.94;5090156;28;20497;-72
2022/09/14 06:18:12;;;;;;;2.23;1.67;;;;;;;-143.84;34.15;44995.75;5090417;28;20914;-72
2022/09/14 06:20:39;;;;;;;5.57;2.50;;;;;;;-143.84;34.42;44963.38;5090609;28;20450;-72
2022/09/14 06:23:06;;;;;;;6.30;2.23;;;;;;;-143.84;34.79;44984.31;5090494;28;20521;-72
2022/09/14 06:25:34;;;;;;;9.33;2.20;;;;;;;-143.84;34.82;44980.53;5089957;28;20435;-72
2022/09/14 06:28:04;;;;;;;2.13;1.93;;;;;;;-143.84;34.36;44988.13;5091079;28;20440;-72
2022/09/14 06:30:32;;;;;;;7.83;3.77;;;;;;;-143.84;35.29;44978.63;5090756;28;20440;-72
2022/09/14 06:32:59;;;;;;;6.30;4.20;;;;;;;-143.84;35.14;44978.63;5091380;28;20501;-72
2022/09/14 06:35:26;;;;;;;14.30;4.50;;;;;;;-143.84;36.42;44982.41;5090707;28;20436;-72
2022/09/14 06:37:53;;;;;;;8.57;4.43;;;;;;;-143.84;36.41;44984.31;5090188;28;20455;-71
2022/09/14 06:40:20;;;;;;;17.47;5.00;;;;;;;-143.84;36.40;44988.13;5090855;28;20476;-71
2022/09/14 06:42:48;;;;;;;7.83;4.20;;;;;;;-143.84;36.51;44978.63;5090959;28;20566;-70
2022/09/14 06:45:15;;;;;;;4.93;3.10;;;;;;;-143.84;35.48;45009.09;5091019;28;20454;-71
2022/09/14 06:47:44;;;;;;;8.60;2.80;;;;;;;-143.84;35.96;44995.75;5093299;28;20452;-71
2022/09/14 06:50:12;;;;;;;6.67;2.83;;;;;;;-143.84;36.28;44971.00;5108324;28;20443;-71
2022/09/14 06:52:39;;;;;;;4.30;2.73;;;;;;;-143.84;35.48;44963.38;5110466;28;20427;-71
2022/09/14 06:55:07;;;;;;;2.57;1.80;;;;;;;-143.84;33.57;44980.53;5110990;28;20435;-71
2022/09/14 06:57:36;;;;;;;2.40;2.20;;;;;;;-143.84;34.49;44978.63;5111288;28;20427;-71
2022/09/14 07:00:05;;;;;;;5.87;2.60;;;;;;;-143.84;34.99;44984.31;5111433;28;20443;-71
2022/09/14 07:02:32;;;;;;;10.50;2.67;;;;;;;-143.84;34.42;44961.47;5105573;28;21017;-71
2022/09/14 07:05:02;;;;;;;6.23;2.43;;;;;;;-143.84;34.42;44942.44;5090612;28;20489;-71
2022/09/14 07:07:30;;;;;;;2.40;2.20;;;;;;;-143.84;34.31;44976.72;5090218;28;20448;-71
2022/09/14 07:09:57;;;;;;;5.23;3.07;;;;;;;-143.84;34.00;44961.47;5090965;28;20446;-71
2022/09/14 07:12:24;;;;;;;6.37;3.70;;;;;;;-143.84;35.18;44965.28;5090776;28;20942;-71
2022/09/14 07:14:51;;;;;;;11.43;4.13;;;;;;;-143.84;35.01;44955.75;5090537;28;20435;-71
2022/09/14 07:17:19;;;;;;;7.77;3.87;;;;;;;-143.84;35.02;44969.09;5090585;28;20436;-71
2022/09/14 07:19:46;;;;;;;9.73;3.50;;;;;;;-143.84;35.07;44988.13;5090760;28;21198;-71
2022/09/14 07:22:14;;;;;;;14.07;3.47;;;;;;;-143.84;35.31;44963.38;5090077;28;20435;-71
2022/09/14 07:24:41;;;;;;;16.80;3.10;;;;;;;-143.84;35.08;44950.06;5090810;28;20487;-71
2022/09/14 07:27:09;;;;;;;3.73;3.30;;;;;;;-143.84;35.87;44978.63;5100144;28;20455;-71
2022/09/14 07:29:36;;;;;;;14.20;4.20;;;;;;;-143.84;35.97;44990.03;5110711;28;20443;-71
2022/09/14 07:32:04;;;;;;;5.20;4.17;;;;;;;-143.84;35.82;44980.53;5110844;28;20435;-71
2022/09/14 07:34:31;;;;;;;9.00;3.13;;;;;;;-143.84;36.01;44974.81;5110692;28;20445;-71
2022/09/14 07:36:58;;;;;;;6.07;3.20;;;;;;;-143.84;36.18;44961.47;5109234;28;20443;-71
2022/09/14 07:39:27;;;;;;;4.63;3.20;;;;;;;-143.84;36.14;44959.56;5109824;28;20487;-71
2022/09/14 07:41:54;;;;;;;10.23;3.50;;;;;;;-143.84;35.98;44971.00;5108557;28;20455;-71
2022/09/14 07:44:21;;;;;;;12.20;3.07;;;;;;;-143.84;36.48;44963.38;5109957;28;20489;-71
2022/09/14 07:46:48;;;;;;;9.20;2.90;;;;;;;-143.84;36.73;44961.47;5109700;28;20512;-71
2022/09/14 07:49:17;;;;;;;3.23;2.93;;;;;;;-143.84;36.51;44978.63;5109453;28;20975;-71
2022/09/14 07:51:45;;;;;;;8.53;3.00;;;;;;;-143.84;36.01;44993.84;5109658;28;21088;-71
2022/09/14 07:54:14;;;;;;;12.57;3.43;;;;;;;-143.84;36.33;44953.88;5109882;28;20447;-71
2022/09/14 07:56:42;;;;;;;9.20;3.13;;;;;;;-143.84;36.33;45005.28;5110135;28;20451;-71
2022/09/14 07:59:11;;;;;;;10.57;3.13;;;;;;;-143.84;35.72;44978.63;5109417;28;20447;-71
2022/09/14 08:01:38;;;;;;;12.13;3.50;;;;;;;-143.84;35.65;44974.81;5109080;28;20508;-71
2022/09/14 08:04:06;;;;;;;12.13;2.83;;;;;;;-143.84;35.48;44976.72;5108573;28;20728;-71
2022/09/14 08:06:34;;;;;;;15.13;3.73;;;;;;;-143.84;35.36;44965.28;5108982;28;20450;-71
2022/09/14 08:09:05;;;;;;;4.33;2.50;;;;;;;-143.84;35.45;44974.81;5109105;28;21351;-71
2022/09/14 08:11:34;;;;;;;7.93;2.87;;;;;;;-143.84;35.53;44974.81;5109863;28;20446;-71
2022/09/14 08:14:04;;;;;;;5.53;3.30;;;;;;;-143.84;35.98;44953.88;5109637;28;20458;-71
2022/09/14 08:16:34;;;;;;;8.37;3.57;;;;;;;-143.84;36.20;44986.22;5109626;28;20451;-71
2022/09/14 08:19:03;;;;;;;3.73;3.03;;;;;;;-143.84;34.74;44980.53;5109448;28;20450;-70
2022/09/14 08:21:32;;;;;;;9.40;2.70;;;;;;;-143.84;35.64;44980.53;5109506;28;20451;-71
2022/09/14 08:24:03;;;;;;;6.80;3.30;;;;;;;-143.84;35.30;44980.53;5108967;28;20479;-72
2022/09/14 08:26:30;;;;;;;7.33;2.57;;;;;;;-143.84;35.30;44982.41;5109709;28;20451;-72
2022/09/14 08:28:59;;;;;;;5.00;2.30;;;;;;;-143.84;35.79;45001.47;5109415;28;20966;-72
2022/09/14 08:31:28;;;;;;;6.50;3.03;;;;;;;-143.84;35.30;44969.09;5109469;28;20450;-72
2022/09/14 08:33:57;;;;;;;4.17;2.47;;;;;;;-143.84;34.74;44946.25;5109593;28;20640;-72
2022/09/14 08:36:28;;;;;;;11.93;2.60;;;;;;;-143.84;34.94;44972.91;5109159;28;20959;-72
2022/09/14 08:38:56;;;;;;;5.70;2.90;;;;;;;-143.84;35.02;44957.66;5108722;28;20479;-72
2022/09/14 08:41:29;;;;;;;12.90;3.00;;;;;;;-143.84;34.59;44971.00;5109307;28;20443;-71
2022/09/14 08:44:02;;;;;;;16.97;3.27;;;;;;;-143.84;34.87;44961.47;5109208;28;20474;-71
2022/09/14 08:46:34;;;;;;;8.17;3.67;;;;;;;-143.84;34.43;44978.63;5109311;28;20536;-70
2022/09/14 08:49:03;;;;;;;11.83;3.00;;;;;;;-143.84;34.62;44965.28;5110406;28;20454;-70
2022/09/14 08:51:30;;;;;;;4.93;2.30;;;;;;;-143.84;33.74;44974.81;5112961;28;20454;-71
2022/09/14 08:53:59;;;;;;;3.03;2.73;;;;;;;-143.84;33.41;44974.81;5113272;28;20822;-71
2022/09/14 08:56:32;;;;;;;5.17;3.00;;;;;;;-143.84;33.62;44953.88;5113146;28;20519;-71
2022/09/14 08:59:24;;;;;;;8.07;3.27;;;;;;;-143.84;33.76;44944.34;5113186;28;20990;-71
2022/09/14 09:02:01;;;;;;;3.63;2.53;;;;;;;-143.84;33.63;44957.66;5111199;28;20821;-72
2022/09/14 09:04:51;;;;;;;6.77;3.07;;;;;;;-143.84;33.53;44967.19;5111821;28;20744;-71
2022/09/14 09:07:24;;;;;;;3.70;2.33;;;;;;;-143.84;33.37;44982.41;5111519;28;20846;-71
2022/09/14 09:09:53;;;;;;;5.87;3.03;;;;;;;-143.84;33.43;44955.75;5112255;28;20457;-71
2022/09/14 09:12:29;;;;;;;4.30;2.90;;;;;;;-143.84;33.51;44946.25;5111935;28;20443;-72
2022/09/14 09:15:00;;;;;;;11.73;3.20;;;;;;;-143.84;32.69;44963.38;5112816;28;20446;-71
2022/09/14 09:17:33;;;;;;;5.00;3.17;;;;;;;-143.84;33.80;44959.56;5111780;28;20860;-72
2022/09/14 09:20:06;;;;;;;3.70;3.33;;;;;;;-143.84;33.07;44951.97;5111639;28;21071;-72
2022/09/14 09:22:39;;;;;;;6.60;3.27;;;;;;;-143.84;33.09;44940.53;5112137;28;20500;-72
2022/09/14 09:25:16;;;;;;;6.80;2.80;;;;;;;-143.84;32.13;44955.75;5112358;28;20487;-71
2022/09/14 09:27:43;;;;;;;4.77;2.70;;;;;;;-143.84;33.12;44919.59;5109937;28;20509;-72
2022/09/14 09:30:14;;;;;;;4.97;2.90;;;;;;;-143.84;32.68;44948.16;5111901;28;20461;-72
2022/09/14 09:32:43;;;;;;;2.63;2.43;;;;;;;-143.84;32.43;44925.31;5108884;28;21179;-72
2022/09/14 09:35:15;;;;;;;3.60;2.37;;;;;;;-143.84;30.95;44950.06;5111617;28;20530;-71
2022/09/14 09:37:42;;;;;;;4.10;2.97;;;;;;;-143.84;31.21;44967.19;5109479;28;20467;-71
2022/09/14 09:40:18;;;;;;;6.17;2.50;;;;;;;-143.84;31.49;44951.97;5111424;28;20490;-71
2022/09/14 09:43:07;;;;;;;10.43;2.20;;;;;;;-143.84;31.10;44950.06;5109629;28;20450;-71
2022/09/14 09:45:48;;;;;;;4.37;2.07;;;;;;;-143.84;31.42;44934.81;5111549;28;20582;-71
2022/09/14 09:48:19;;;;;;;2.97;2.77;;;;;;;-143.84;31.41;44951.97;5108303;28;20442;-71
2022/09/14 09:50:52;;;;;;;3.30;1.50;;;;;;;-143.84;28.77;44944.34;5110747;28;20467;-70
2022/09/14 09:53:22;;;;;;;2.93;2.10;;;;;;;-143.84;30.18;44959.56;5111715;28;21416;-71
2022/09/14 09:55:50;;;;;;;7.90;2.10;;;;;;;-143.84;29.50;44917.69;5111727;28;20530;-71
2022/09/14 09:58:22;;;;;;;1.60;1.50;;;;;;;-143.84;29.79;44919.59;5111386;28;20468;-71
2022/09/14 10:00:56;;;;;;;6.23;2.10;;;;;;;-143.84;30.30;44927.19;5111413;28;20508;-71
2022/09/14 10:03:32;;;;;;;4.73;1.70;;;;;;;-143.84;29.77;44919.59;5111566;28;20577;-71
2022/09/14 10:06:06;;;;;;;6.30;2.60;;;;;;;-143.84;30.64;44923.41;5111161;28;20486;-71
2022/09/14 10:08:34;;;;;;;6.07;1.63;;;;;;;-143.84;29.73;44911.97;5111021;28;20523;-71
2022/09/14 10:11:03;;;;;;;3.40;1.43;;;;;;;-143.84;29.04;44942.44;5111277;28;20453;-71
2022/09/14 10:13:32;;;;;;;4.63;1.83;;;;;;;-143.84;30.65;44911.97;5111396;28;20984;-71
2022/09/14 10:16:08;;;;;;;15.37;2.70;;;;;;;-143.84;30.44;44911.97;5111059;28;20480;-71
2022/09/14 10:18:43;;;;;;;3.33;1.70;;;;;;;-143.84;29.61;44963.38;5110773;28;20513;-71
2022/09/14 10:21:10;;;;;;;6.83;2.70;;;;;;;-143.84;30.40;44932.91;5110116;28;20489;-71
2022/09/14 10:23:39;;;;;;;6.87;1.57;;;;;;;-143.84;29.66;44931.00;5110596;28;20443;-73
2022/09/14 10:26:27;;;;;;;2.87;1.77;;;;;;;-143.84;29.10;44940.53;5110505;28;20476;-73
2022/09/14 10:29:17;;;;;;;3.80;1.67;;;;;;;-143.84;30.45;44923.41;5110492;28;20523;-73
2022/09/14 10:31:46;;;;;;;10.53;3.03;;;;;;;-143.84;29.87;44936.72;5107996;28;20454;-73
2022/09/14 10:34:20;;;;;;;5.37;1.50;;;;;;;-143.84;30.11;44927.19;5108880;28;20934;-73
2022/09/14 10:36:53;;;;;;;2.70;1.70;;;;;;;-143.84;30.35;44917.69;5109510;28;20479;-73
2022/09/14 10:39:28;;;;;;;2.90;1.73;;;;;;;-143.84;29.68;44906.25;5108611;28;20483;-73
2022/09/14 10:42:02;;;;;;;3.50;2.00;;;;;;;-143.84;29.19;44927.19;5106843;28;20439;-73
2022/09/14 10:44:49;;;;;;;2.17;1.60;;;;;;;-143.84;29.46;44904.34;5107416;28;20530;-73
2022/09/14 10:47:30;;;;;;;5.03;1.70;;;;;;;-143.84;29.23;44904.34;5107747;28;20866;-70
2022/09/14 10:50:18;;;;;;;2.70;1.43;;;;;;;-143.84;28.62;44934.81;5106326;28;20968;-70
2022/09/14 10:52:54;;;;;;;3.87;1.80;;;;;;;-143.84;28.96;44911.97;5106814;28;20455;-73
2022/09/14 10:55:33;;;;;;;3.90;1.70;;;;;;;-143.84;28.74;44936.72;5108562;28;20636;-73
2022/09/14 10:58:17;;;;;;;3.50;1.50;;;;;;;-143.84;27.88;44917.69;5107667;28;20803;-73
2022/09/14 11:00:53;;;;;;;2.70;1.23;;;;;;;-143.84;28.51;44892.94;5107215;28;20485;-73
2022/09/14 11:03:33;;;;;;;5.10;1.40;;;;;;;-143.84;28.79;44925.31;5108250;28;20519;-73
2022/09/14 11:06:13;;;;;;;15.40;2.20;;;;;;;-143.84;28.99;44925.31;5108490;28;20486;-73
2022/09/14 11:08:45;;;;;;;4.50;1.90;;;;;;;-143.84;29.05;44911.97;5106504;28;20458;-73
2022/09/14 11:11:29;;;;;;;3.10;1.47;;;;;;;-143.84;28.45;44917.69;5106648;28;20479;-73
2022/09/14 11:14:12;;;;;;;3.30;1.40;;;;;;;-143.84;28.19;44921.50;5108542;28;20914;-73
2022/09/14 11:17:00;;;;;;;6.13;1.70;;;;;;;-143.84;28.26;44932.91;5109339;28;20990;-73
2022/09/14 11:19:39;;;;;;;4.07;1.50;;;;;;;-143.84;28.34;44931.00;5108589;28;20811;-73
2022/09/14 11:22:14;;;;;;;5.00;1.47;;;;;;;-143.84;29.45;44946.25;5108805;28;20507;-73
2022/09/14 11:24:47;;;;;;;1.37;1.27;;;;;;;-143.84;29.30;44934.81;5106017;28;20921;-73
2022/09/14 11:27:25;;;;;;;2.10;1.40;;;;;;;-143.84;28.96;44961.47;5105448;28;20439;-73
2022/09/14 11:29:57;;;;;;;32.20;2.90;;;;;;;-143.84;33.89;44929.09;5106396;28;20447;-73
2022/09/14 11:32:30;;;;;;;5.37;2.00;;;;;;;-143.84;35.95;44931.00;5108525;28;21284;-73